Time,TemperatureF,DewpointF,PressureIn,WindDirection,WindDirectionDegrees,WindSpeedMPH,WindSpeedGustMPH,Humidity,HourlyPrecipIn,Conditions,Clouds,dailyrainin,SoftwareType,DateUTC
2013-01-20 00:01:00,33.7,31.6,30.16,SE,145,0.0,0.0,92,0.00,CLR,,0.00,WeatherDisplay:10.37,2013-01-20 05:01:00,
2013-01-20 00:03:00,33.7,31.6,30.15,SE,145,0.0,0.0,92,0.00,CLR,,0.00,WeatherDisplay:10.37,2013-01-20 05:03:00,
2013-01-20 00:08:00,33.6,31.5,30.15,SE,146,0.0,0.0,92,0.00,CLR,,0.00,WeatherDisplay:10.37,2013-01-20 05:08:00,
2013-01-20 00:13:00,33.7,31.6,30.15,SE,146,0.0,0.0,92,0.00,CLR,,0.00,WeatherDisplay:10.37,2013-01-20 05:13:00,
2013-01-20 00:18:00,33.7,31.6,30.15,SE,145,0.0,0.0,92,0.00,CLR,,0.00,WeatherDisplay:10.37,2013-01-20 05:18:00,
2013-01-20 00:23:00,33.7,31.9,30.15,SE,145,0.0,0.0,93,0.00,CLR,,0.00,WeatherDisplay:10.37,2013-01-20 05:23:00,
2013-01-20 00:28:00,33.8,32.0,30.15,SE,145,0.0,0.0,93,0.00,CLR,,0.00,WeatherDisplay:10.37,2013-01-20 05:28:00,
2013-01-20 00:33:00,33.8,32.0,30.14,SE,145,0.0,0.0,93,0.00,CLR,,0.00,WeatherDisplay:10.37,2013-01-20 05:33:00,
2013-01-20 00:38:00,33.8,32.0,30.14,SE,146,0.0,0.0,93,0.00,CLR,,0.00,WeatherDisplay:10.37,2013-01-20 05:38:00,
2013-01-20 00:43:00,33.7,31.9,30.14,SE,145,0.0,0.0,93,0.00,CLR,,0.00,WeatherDisplay:10.37,2013-01-20 05:43:00,
2013-01-20 00:48:00,33.9,32.4,30.14,SE,145,0.0,0.0,94,0.00,CLR,,0.00,WeatherDisplay:10.37,2013-01-20 05:48:00,
2013-01-20 00:53:00,34.3,32.8,30.14,SE,145,0.0,0.0,94,0.00,CLR,,0.00,WeatherDisplay:10.37,2013-01-20 05:53:00,
2013-01-20 00:58:00,34.6,33.1,30.14,SE,145,0.0,0.0,94,0.00,CLR,,0.00,WeatherDisplay:10.37,2013-01-20 05:58:00,
2013-01-20 01:03:00,34.8,33.2,30.14,SE,146,0.0,0.0,94,0.00,CLR,,0.00,WeatherDisplay:10.37,2013-01-20 06:03:00,
2013-01-20 01:08:00,34.9,33.3,30.14,SE,145,0.0,0.0,94,0.00,CLR,,0.00,WeatherDisplay:10.37,2013-01-20 06:08:00,
2013-01-20 01:13:00,35.1,33.5,30.14,SE,145,0.0,0.0,94,0.00,CLR,,0.00,WeatherDisplay:10.37,2013-01-20 06:13:00,
2013-01-20 01:18:00,35.1,33.5,30.13,SE,145,0.0,0.0,94,0.00,CLR,,0.00,WeatherDisplay:10.37,2013-01-20 06:18:00,
2013-01-20 01:23:00,35.1,33.5,30.13,SE,145,0.0,0.0,94,0.00,CLR,,0.00,WeatherDisplay:10.37,2013-01-20 06:23:00,
2013-01-20 01:28:00,35.1,33.5,30.13,SE,145,0.0,0.0,94,0.00,CLR,,0.00,WeatherDisplay:10.37,2013-01-20 06:28:00,
2013-01-20 01:33:00,35.2,33.6,30.13,SE,146,0.0,0.0,94,0.00,CLR,,0.00,WeatherDisplay:10.37,2013-01-20 06:33:00,
2013-01-20 01:38:00,35.1,33.5,30.13,SE,145,0.0,0.0,94,0.00,CLR,,0.00,WeatherDisplay:10.37,2013-01-20 06:38:00,
2013-01-20 01:43:00,35.1,33.5,30.13,SE,146,0.0,0.0,94,0.00,CLR,,0.00,WeatherDisplay:10.37,2013-01-20 06:43:00,
2013-01-20 01:48:00,35.1,33.5,30.13,SE,145,0.0,0.0,94,0.00,CLR,,0.00,WeatherDisplay:10.37,2013-01-20 06:48:00,
2013-01-20 01:53:00,35.1,33.5,30.13,SE,146,0.0,0.0,94,0.00,CLR,,0.00,WeatherDisplay:10.37,2013-01-20 06:53:00,
2013-01-20 01:58:00,35.3,34.0,30.13,SE,146,0.0,0.0,95,0.00,CLR,,0.00,WeatherDisplay:10.37,2013-01-20 06:58:00,
2013-01-20 02:03:00,35.5,34.2,30.13,SE,146,0.0,0.0,95,0.00,CLR,,0.00,WeatherDisplay:10.37,2013-01-20 07:03:00,
2013-01-20 02:08:00,35.4,34.1,30.13,SE,145,0.0,0.0,95,0.00,CLR,,0.00,WeatherDisplay:10.37,2013-01-20 07:08:00,
2013-01-20 02:13:00,35.7,34.4,30.13,SE,145,0.0,0.0,95,0.00,CLR,,0.00,WeatherDisplay:10.37,2013-01-20 07:13:00,
2013-01-20 02:18:00,36.5,35.5,30.12,SSW,193,0.0,0.0,96,0.00,CLR,,0.00,WeatherDisplay:10.37,2013-01-20 07:18:00,
2013-01-20 02:23:00,37.9,36.3,30.12,SE,131,1.1,0.0,94,0.00,CLR,,0.00,WeatherDisplay:10.37,2013-01-20 07:23:00,
2013-01-20 02:28:00,39.1,36.7,30.12,WSW,240,1.0,0.0,91,0.00,CLR,,0.00,WeatherDisplay:10.37,2013-01-20 07:28:00,
2013-01-20 02:33:00,40.0,36.7,30.12,South,187,3.5,3.5,88,0.00,CLR,,0.00,WeatherDisplay:10.37,2013-01-20 07:33:00,
2013-01-20 02:38:00,40.7,36.8,30.11,SSW,208,1.1,0.0,86,0.00,CLR,,0.00,WeatherDisplay:10.37,2013-01-20 07:38:00,
2013-01-20 02:43:00,41.1,36.6,30.11,South,184,0.0,0.0,84,0.00,CLR,,0.00,WeatherDisplay:10.37,2013-01-20 07:43:00,
2013-01-20 02:48:00,41.3,36.5,30.11,SW,236,0.0,0.0,83,0.00,CLR,,0.00,WeatherDisplay:10.37,2013-01-20 07:48:00,
2013-01-20 02:53:00,41.5,36.4,30.11,WSW,238,0.0,0.0,82,0.00,CLR,,0.00,WeatherDisplay:10.37,2013-01-20 07:53:00,
2013-01-20 02:58:00,41.8,36.4,30.11,South,171,0.0,0.0,81,0.00,CLR,,0.00,WeatherDisplay:10.37,2013-01-20 07:58:00,
2013-01-20 03:03:00,41.9,36.5,30.11,SSW,207,0.0,0.0,81,0.00,CLR,,0.00,WeatherDisplay:10.37,2013-01-20 08:03:00,
2013-01-20 03:08:00,41.7,36.3,30.11,SSW,211,0.0,0.0,81,0.00,CLR,,0.00,WeatherDisplay:10.37,2013-01-20 08:08:00,
2013-01-20 03:14:00,41.8,36.1,30.11,SSW,212,0.0,0.0,80,0.00,CLR,,0.00,WeatherDisplay:10.37,2013-01-20 08:14:00,
2013-01-20 03:19:00,41.7,36.0,30.11,SW,214,0.0,0.0,80,0.00,CLR,,0.00,WeatherDisplay:10.37,2013-01-20 08:19:00,
2013-01-20 03:24:00,41.5,36.1,30.11,SW,233,0.0,0.0,81,0.00,CLR,,0.00,WeatherDisplay:10.37,2013-01-20 08:24:00,
2013-01-20 03:29:00,41.5,36.1,30.10,SW,232,0.0,0.0,81,0.00,CLR,,0.00,WeatherDisplay:10.37,2013-01-20 08:29:00,
2013-01-20 03:34:00,41.4,36.0,30.10,SW,234,0.0,0.0,81,0.00,CLR,,0.00,WeatherDisplay:10.37,2013-01-20 08:34:00,
2013-01-20 03:39:00,41.2,35.8,30.10,SW,233,0.0,0.0,81,0.00,CLR,,0.00,WeatherDisplay:10.37,2013-01-20 08:39:00,
2013-01-20 03:44:00,41.0,35.6,30.10,SW,233,0.0,0.0,81,0.00,CLR,,0.00,WeatherDisplay:10.37,2013-01-20 08:44:00,
2013-01-20 03:49:00,40.6,35.5,30.10,SW,232,0.0,0.0,82,0.00,CLR,,0.00,WeatherDisplay:10.37,2013-01-20 08:49:00,
2013-01-20 03:54:00,40.4,35.3,30.09,SW,233,0.0,0.0,82,0.00,CLR,,0.00,WeatherDisplay:10.37,2013-01-20 08:54:00,
2013-01-20 03:59:00,40.0,35.3,30.09,SW,232,0.0,0.0,83,0.00,CLR,,0.00,WeatherDisplay:10.37,2013-01-20 08:59:00,
2013-01-20 04:04:00,40.0,35.3,30.09,WSW,248,0.0,0.0,83,0.00,CLR,,0.00,WeatherDisplay:10.37,2013-01-20 09:04:00,
2013-01-20 04:09:00,39.7,35.0,30.09,SE,141,0.0,0.0,83,0.00,CLR,,0.00,WeatherDisplay:10.37,2013-01-20 09:09:00,
2013-01-20 04:14:00,39.6,34.9,30.09,SE,141,1.1,0.0,83,0.00,CLR,,0.00,WeatherDisplay:10.37,2013-01-20 09:14:00,
2013-01-20 04:19:00,39.3,34.6,30.09,SE,141,0.0,0.1,83,0.00,CLR,,0.00,WeatherDisplay:10.37,2013-01-20 09:19:00,
2013-01-20 04:24:00,39.1,34.4,30.09,SE,141,0.0,0.0,83,0.00,CLR,,0.00,WeatherDisplay:10.37,2013-01-20 09:24:00,
2013-01-20 04:29:00,39.0,34.6,30.08,SSW,205,0.0,0.0,84,0.00,CLR,,0.00,WeatherDisplay:10.37,2013-01-20 09:29:00,
2013-01-20 04:34:00,38.7,34.3,30.08,SSW,205,0.0,0.0,84,0.00,CLR,,0.00,WeatherDisplay:10.37,2013-01-20 09:34:00,
2013-01-20 04:39:00,38.4,34.3,30.08,SSW,205,0.0,0.0,85,0.00,CLR,,0.00,WeatherDisplay:10.37,2013-01-20 09:39:00,
2013-01-20 04:44:00,38.2,34.4,30.08,SSW,205,0.0,0.0,86,0.00,CLR,,0.00,WeatherDisplay:10.37,2013-01-20 09:44:00,
2013-01-20 04:49:00,38.3,34.5,30.08,SSW,206,0.0,0.0,86,0.00,CLR,,0.00,WeatherDisplay:10.37,2013-01-20 09:49:00,
2013-01-20 04:54:00,38.5,34.4,30.08,SSW,205,0.0,0.0,85,0.00,CLR,,0.00,WeatherDisplay:10.37,2013-01-20 09:54:00,
2013-01-20 04:59:00,38.5,34.4,30.08,SSW,205,0.0,0.0,85,0.00,CLR,,0.00,WeatherDisplay:10.37,2013-01-20 09:59:00,
2013-01-20 05:04:00,38.3,34.2,30.08,SSW,205,0.0,0.0,85,0.00,CLR,,0.00,WeatherDisplay:10.37,2013-01-20 10:04:00,
2013-01-20 05:09:00,38.2,34.4,30.08,SSW,205,0.0,0.0,86,0.00,CLR,,0.00,WeatherDisplay:10.37,2013-01-20 10:09:00,
2013-01-20 05:14:00,38.0,34.2,30.08,SSW,205,0.0,0.0,86,0.00,CLR,,0.00,WeatherDisplay:10.37,2013-01-20 10:14:00,
2013-01-20 05:19:00,38.0,34.2,30.08,SSW,207,0.0,0.0,86,0.00,CLR,,0.00,WeatherDisplay:10.37,2013-01-20 10:19:00,
2013-01-20 05:24:00,38.0,34.2,30.08,SSW,207,0.0,0.0,86,0.00,CLR,,0.00,WeatherDisplay:10.37,2013-01-20 10:24:00,
2013-01-20 05:29:00,37.9,34.1,30.08,SSW,207,0.0,0.0,86,0.00,CLR,,0.00,WeatherDisplay:10.37,2013-01-20 10:29:00,
2013-01-20 05:34:00,37.7,33.9,30.08,SSW,209,0.0,0.0,86,0.00,CLR,,0.00,WeatherDisplay:10.37,2013-01-20 10:34:00,
2013-01-20 05:39:00,37.5,33.7,30.07,SSW,208,0.0,0.0,86,0.00,CLR,,0.00,WeatherDisplay:10.37,2013-01-20 10:39:00,
2013-01-20 05:44:00,37.4,33.9,30.07,SSW,208,0.0,0.0,87,0.00,CLR,,0.00,WeatherDisplay:10.37,2013-01-20 10:44:00,
2013-01-20 05:49:00,37.5,34.0,30.07,SSW,207,0.0,0.0,87,0.00,CLR,,0.00,WeatherDisplay:10.37,2013-01-20 10:49:00,
2013-01-20 05:54:00,37.6,33.8,30.07,SSW,211,0.0,0.0,86,0.00,CLR,,0.00,WeatherDisplay:10.37,2013-01-20 10:54:00,
2013-01-20 05:59:00,37.8,34.0,30.07,SW,235,0.0,0.0,86,0.00,CLR,,0.00,WeatherDisplay:10.37,2013-01-20 10:59:00,
2013-01-20 06:04:00,37.9,33.8,30.07,SW,235,0.0,0.0,85,0.00,CLR,,0.00,WeatherDisplay:10.37,2013-01-20 11:04:00,
2013-01-20 06:09:00,37.7,33.6,30.07,SW,235,0.0,0.0,85,0.00,CLR,,0.00,WeatherDisplay:10.37,2013-01-20 11:09:00,
2013-01-20 06:14:00,37.5,33.4,30.07,SW,234,0.0,0.0,85,0.00,CLR,,0.00,WeatherDisplay:10.37,2013-01-20 11:14:00,
2013-01-20 06:19:00,37.3,33.5,30.07,SW,235,0.0,0.0,86,0.00,CLR,,0.00,WeatherDisplay:10.37,2013-01-20 11:19:00,
2013-01-20 06:24:00,37.5,34.0,30.07,SW,235,0.0,0.0,87,0.00,CLR,,0.00,WeatherDisplay:10.37,2013-01-20 11:24:00,
2013-01-20 06:29:00,37.4,33.9,30.07,SW,235,0.0,0.0,87,0.00,CLR,,0.00,WeatherDisplay:10.37,2013-01-20 11:29:00,
2013-01-20 06:34:00,37.3,33.8,30.07,SW,235,0.0,0.0,87,0.00,CLR,,0.00,WeatherDisplay:10.37,2013-01-20 11:34:00,
2013-01-20 06:39:00,37.1,33.9,30.07,SW,235,0.0,0.0,88,0.00,CLR,,0.00,WeatherDisplay:10.37,2013-01-20 11:39:00,
2013-01-20 06:44:00,36.8,33.6,30.07,SW,236,0.0,0.0,88,0.00,CLR,,0.00,WeatherDisplay:10.37,2013-01-20 11:44:00,
2013-01-20 06:49:00,36.6,33.7,30.07,SSE,160,0.0,0.0,89,0.00,CLR,,0.00,WeatherDisplay:10.37,2013-01-20 11:49:00,
2013-01-20 06:54:00,36.3,33.6,30.08,SSE,160,0.0,0.0,90,0.00,CLR,,0.00,WeatherDisplay:10.37,2013-01-20 11:54:00,
2013-01-20 06:59:00,36.2,33.3,30.07,SE,146,0.0,0.0,89,0.00,CLR,,0.00,WeatherDisplay:10.37,2013-01-20 11:59:00,
2013-01-20 07:04:00,36.6,33.1,30.07,SW,226,0.0,0.0,87,0.00,CLR,,0.00,WeatherDisplay:10.37,2013-01-20 12:04:00,
2013-01-20 07:09:00,37.3,32.9,30.07,SW,229,0.0,0.0,84,0.00,CLR,,0.00,WeatherDisplay:10.37,2013-01-20 12:09:00,
2013-01-20 07:14:00,38.3,33.3,30.07,West,278,2.3,0.0,82,0.00,CLR,,0.00,WeatherDisplay:10.37,2013-01-20 12:14:00,
2013-01-20 07:19:00,39.3,33.0,30.08,WSW,243,2.0,2.0,78,0.00,CLR,,0.00,WeatherDisplay:10.37,2013-01-20 12:19:00,
2013-01-20 07:24:00,40.3,33.0,30.08,WSW,243,2.3,2.3,75,0.00,CLR,,0.00,WeatherDisplay:10.37,2013-01-20 12:24:00,
2013-01-20 07:29:00,41.0,33.0,30.08,WSW,253,2.3,2.3,73,0.00,CLR,,0.00,WeatherDisplay:10.37,2013-01-20 12:29:00,
2013-01-20 07:34:00,41.4,33.0,30.08,NW,306,3.5,3.5,72,0.00,CLR,,0.00,WeatherDisplay:10.37,2013-01-20 12:34:00,
2013-01-20 07:39:00,41.7,33.0,30.08,West,259,1.1,1.1,71,0.00,CLR,,0.00,WeatherDisplay:10.37,2013-01-20 12:39:00,
2013-01-20 07:44:00,41.9,32.8,30.08,West,269,2.3,2.3,70,0.00,CLR,,0.00,WeatherDisplay:10.37,2013-01-20 12:44:00,
2013-01-20 07:49:00,42.1,33.0,30.08,WSW,248,1.1,0.0,70,0.00,CLR,,0.00,WeatherDisplay:10.37,2013-01-20 12:49:00,
2013-01-20 07:54:00,42.1,33.0,30.08,WSW,239,2.3,2.3,70,0.00,CLR,,0.00,WeatherDisplay:10.37,2013-01-20 12:54:00,
2013-01-20 07:59:00,42.3,32.8,30.08,WSW,253,1.1,1.1,69,0.00,CLR,,0.00,WeatherDisplay:10.37,2013-01-20 12:59:00,
2013-01-20 08:04:00,42.4,32.9,30.08,WSW,240,1.1,1.1,69,0.00,CLR,,0.00,WeatherDisplay:10.37,2013-01-20 13:04:00,
2013-01-20 08:09:00,42.7,32.9,30.08,WSW,240,1.1,1.1,68,0.00,CLR,,0.00,WeatherDisplay:10.37,2013-01-20 13:09:00,
2013-01-20 08:14:00,43.0,33.2,30.08,WSW,242,2.3,2.3,68,0.00,CLR,,0.00,WeatherDisplay:10.37,2013-01-20 13:14:00,
2013-01-20 08:20:00,43.3,33.1,30.08,SW,226,1.1,1.1,67,0.00,CLR,,0.00,WeatherDisplay:10.37,2013-01-20 13:20:00,
2013-01-20 08:25:00,43.8,33.2,30.08,SW,233,3.5,3.5,66,0.00,CLR,,0.00,WeatherDisplay:10.37,2013-01-20 13:25:00,
2013-01-20 08:30:00,44.4,33.4,30.08,WSW,238,3.5,3.5,65,0.00,CLR,,0.00,WeatherDisplay:10.37,2013-01-20 13:30:00,
2013-01-20 08:35:00,44.9,33.5,30.09,WSW,250,3.5,3.5,64,0.00,CLR,,0.00,WeatherDisplay:10.37,2013-01-20 13:35:00,
2013-01-20 08:40:00,45.4,33.5,30.09,WNW,293,2.3,2.3,63,0.00,CLR,,0.00,WeatherDisplay:10.37,2013-01-20 13:40:00,
2013-01-20 08:45:00,45.9,33.6,30.09,WNW,294,3.5,3.5,62,0.00,CLR,,0.00,WeatherDisplay:10.37,2013-01-20 13:45:00,
2013-01-20 08:50:00,46.3,33.2,30.09,WSW,250,5.8,5.8,60,0.00,CLR,,0.00,WeatherDisplay:10.37,2013-01-20 13:50:00,
2013-01-20 08:55:00,46.6,33.4,30.09,SSW,207,3.5,3.5,60,0.00,CLR,,0.00,WeatherDisplay:10.37,2013-01-20 13:55:00,
2013-01-20 09:00:00,47.0,33.4,30.09,West,281,3.5,3.5,59,0.00,CLR,,0.00,WeatherDisplay:10.37,2013-01-20 14:00:00,
2013-01-20 09:05:00,47.3,33.7,30.09,SW,229,3.5,3.5,59,0.00,CLR,,0.00,WeatherDisplay:10.37,2013-01-20 14:05:00,
2013-01-20 09:10:00,47.6,33.5,30.09,West,260,3.5,3.5,58,0.00,CLR,,0.00,WeatherDisplay:10.37,2013-01-20 14:10:00,
2013-01-20 09:15:00,47.9,33.8,30.09,WSW,249,2.3,2.3,58,0.00,CLR,,0.00,WeatherDisplay:10.37,2013-01-20 14:15:00,
2013-01-20 09:20:00,48.3,33.8,30.09,SW,226,2.3,2.3,57,0.00,CLR,,0.00,WeatherDisplay:10.37,2013-01-20 14:20:00,
2013-01-20 09:25:00,48.7,33.7,30.09,WSW,242,3.5,3.5,56,0.00,CLR,,0.00,WeatherDisplay:10.37,2013-01-20 14:25:00,
2013-01-20 09:30:00,49.1,33.2,30.09,WSW,242,3.5,3.5,54,0.00,CLR,,0.00,WeatherDisplay:10.37,2013-01-20 14:30:00,
2013-01-20 09:35:00,49.6,33.2,30.09,SW,217,3.5,3.5,53,0.00,CLR,,0.00,WeatherDisplay:10.37,2013-01-20 14:35:00,
2013-01-20 09:40:00,49.9,33.4,30.09,SW,224,5.8,5.8,53,0.00,CLR,,0.00,WeatherDisplay:10.37,2013-01-20 14:40:00,
2013-01-20 09:45:00,50.1,33.1,30.09,WSW,257,3.5,3.5,52,0.00,CLR,,0.00,WeatherDisplay:10.37,2013-01-20 14:45:00,
2013-01-20 09:50:00,50.1,32.7,30.09,SW,236,3.5,3.5,51,0.00,CLR,,0.00,WeatherDisplay:10.37,2013-01-20 14:50:00,
2013-01-20 09:55:00,50.4,32.9,30.09,WSW,242,3.5,3.5,51,0.00,CLR,,0.00,WeatherDisplay:10.37,2013-01-20 14:55:00,
2013-01-20 10:00:00,50.8,33.3,30.09,WNW,290,3.5,3.5,51,0.00,CLR,,0.00,WeatherDisplay:10.37,2013-01-20 15:00:00,
2013-01-20 10:05:00,51.2,33.7,30.09,SSW,207,2.3,2.3,51,0.00,CLR,,0.00,WeatherDisplay:10.37,2013-01-20 15:05:00,
2013-01-20 10:10:00,51.6,32.5,30.09,WSW,240,4.6,4.6,48,0.00,CLR,,0.00,WeatherDisplay:10.37,2013-01-20 15:10:00,
2013-01-20 10:15:00,51.8,33.7,30.09,WSW,240,2.3,2.3,50,0.00,CLR,,0.00,WeatherDisplay:10.37,2013-01-20 15:15:00,
2013-01-20 10:20:00,52.2,33.6,30.09,WSW,242,3.5,3.5,49,0.00,CLR,,0.00,WeatherDisplay:10.37,2013-01-20 15:20:00,
2013-01-20 10:25:00,52.6,33.5,30.09,WSW,255,4.0,4.0,48,0.00,CLR,,0.00,WeatherDisplay:10.37,2013-01-20 15:25:00,
2013-01-20 10:30:00,53.0,33.3,30.09,West,277,2.0,2.0,47,0.00,CLR,,0.00,WeatherDisplay:10.37,2013-01-20 15:30:00,
2013-01-20 10:35:00,53.3,33.0,30.09,WNW,290,3.5,3.5,46,0.00,CLR,,0.00,WeatherDisplay:10.37,2013-01-20 15:35:00,
2013-01-20 10:40:00,53.7,32.8,30.08,WSW,246,3.5,3.5,45,0.00,CLR,,0.00,WeatherDisplay:10.37,2013-01-20 15:40:00,
2013-01-20 10:45:00,54.1,33.8,30.08,West,271,5.0,5.0,46,0.00,CLR,,0.00,WeatherDisplay:10.37,2013-01-20 15:45:00,
2013-01-20 10:50:00,54.4,33.5,30.08,SSE,155,3.5,3.5,45,0.00,CLR,,0.00,WeatherDisplay:10.37,2013-01-20 15:50:00,
2013-01-20 10:55:00,54.8,33.8,30.07,WSW,248,3.5,3.5,45,0.00,CLR,,0.00,WeatherDisplay:10.37,2013-01-20 15:55:00,
2013-01-20 11:00:00,55.3,33.7,30.08,West,273,3.5,3.5,44,0.00,CLR,,0.00,WeatherDisplay:10.37,2013-01-20 16:00:00,
2013-01-20 11:05:00,55.7,34.1,30.07,West,271,3.5,3.5,44,0.00,CLR,,0.00,WeatherDisplay:10.37,2013-01-20 16:05:00,
2013-01-20 11:10:00,56.0,34.4,30.08,WSW,246,3.5,3.5,44,0.00,CLR,,0.00,WeatherDisplay:10.37,2013-01-20 16:10:00,
2013-01-20 11:15:00,56.4,34.7,30.07,WSW,242,4.6,4.6,44,0.00,CLR,,0.00,WeatherDisplay:10.37,2013-01-20 16:15:00,
2013-01-20 11:20:00,56.7,34.4,30.07,WSW,255,6.0,6.0,43,0.00,CLR,,0.00,WeatherDisplay:10.37,2013-01-20 16:20:00,
2013-01-20 11:25:00,56.9,35.2,30.07,NNW,335,3.5,3.5,44,0.00,CLR,,0.00,WeatherDisplay:10.37,2013-01-20 16:25:00,
2013-01-20 11:30:00,57.4,35.1,30.06,NNE,23,3.0,3.0,43,0.00,CLR,,0.00,WeatherDisplay:10.37,2013-01-20 16:30:00,
2013-01-20 11:35:00,57.6,35.2,30.06,West,273,3.5,3.5,43,0.00,CLR,,0.00,WeatherDisplay:10.37,2013-01-20 16:35:00,
2013-01-20 11:40:00,57.9,35.5,30.05,WNW,291,4.6,4.6,43,0.00,CLR,,0.00,WeatherDisplay:10.37,2013-01-20 16:40:00,
2013-01-20 11:45:00,58.3,35.9,30.05,NW,321,3.5,3.5,43,0.00,CLR,,0.00,WeatherDisplay:10.37,2013-01-20 16:45:00,
2013-01-20 11:50:00,58.7,36.2,30.05,West,260,2.3,2.3,43,0.00,CLR,,0.00,WeatherDisplay:10.37,2013-01-20 16:50:00,
2013-01-20 11:55:00,59.3,36.8,30.04,South,190,3.5,3.5,43,0.00,CLR,,0.00,WeatherDisplay:10.37,2013-01-20 16:55:00,
2013-01-20 12:00:00,59.9,36.1,30.04,NNW,336,2.3,2.3,41,0.00,CLR,,0.00,WeatherDisplay:10.37,2013-01-20 17:00:00,
2013-01-20 12:05:00,59.9,35.5,30.04,North,6,2.3,2.3,40,0.00,CLR,,0.00,WeatherDisplay:10.37,2013-01-20 17:05:00,
2013-01-20 12:10:00,60.5,37.3,30.03,ENE,58,3.5,3.5,42,0.00,CLR,,0.00,WeatherDisplay:10.37,2013-01-20 17:10:00,
2013-01-20 12:15:00,60.9,36.4,30.02,West,265,3.5,3.5,40,0.00,CLR,,0.00,WeatherDisplay:10.37,2013-01-20 17:15:00,
2013-01-20 12:20:00,61.1,35.9,30.02,SW,226,3.5,3.5,39,0.00,CLR,,0.00,WeatherDisplay:10.37,2013-01-20 17:20:00,
2013-01-20 12:25:00,61.5,36.9,30.02,SW,229,2.3,2.3,40,0.00,CLR,,0.00,WeatherDisplay:10.37,2013-01-20 17:25:00,
2013-01-20 12:30:00,61.7,35.8,30.01,NW,315,3.5,3.5,38,0.00,CLR,,0.00,WeatherDisplay:10.37,2013-01-20 17:30:00,
2013-01-20 12:35:00,61.9,36.7,30.01,West,276,1.1,1.1,39,0.00,CLR,,0.00,WeatherDisplay:10.37,2013-01-20 17:35:00,
2013-01-20 12:40:00,62.3,35.7,30.01,NW,320,3.5,3.5,37,0.00,CLR,,0.00,WeatherDisplay:10.37,2013-01-20 17:40:00,
2013-01-20 12:45:00,62.5,36.5,30.01,SW,235,5.8,5.8,38,0.00,CLR,,0.00,WeatherDisplay:10.37,2013-01-20 17:45:00,
2013-01-20 12:50:00,63.2,36.5,30.01,WSW,248,4.6,4.6,37,0.00,CLR,,0.00,WeatherDisplay:10.37,2013-01-20 17:50:00,
2013-01-20 12:55:00,63.3,36.6,30.00,NNW,347,2.3,2.3,37,0.00,CLR,,0.00,WeatherDisplay:10.37,2013-01-20 17:55:00,
2013-01-20 13:00:00,63.6,36.8,30.00,NNW,346,4.0,4.0,37,0.00,CLR,,0.00,WeatherDisplay:10.37,2013-01-20 18:00:00,
2013-01-20 13:05:00,63.6,37.5,29.99,West,259,6.0,6.0,38,0.00,CLR,,0.00,WeatherDisplay:10.37,2013-01-20 18:05:00,
2013-01-20 13:10:00,63.5,36.0,30.00,WNW,288,4.6,4.6,36,0.00,CLR,,0.00,WeatherDisplay:10.37,2013-01-20 18:10:00,
2013-01-20 13:15:00,63.2,36.5,29.99,WNW,302,5.8,5.8,37,0.00,CLR,,0.00,WeatherDisplay:10.37,2013-01-20 18:15:00,
2013-01-20 13:20:00,63.4,36.0,29.99,WNW,290,3.5,3.5,36,0.00,CLR,,0.00,WeatherDisplay:10.37,2013-01-20 18:20:00,
2013-01-20 13:26:00,63.5,36.0,29.99,WNW,293,6.9,6.9,36,0.00,CLR,,0.00,WeatherDisplay:10.37,2013-01-20 18:26:00,
2013-01-20 13:31:00,63.4,36.7,29.99,SSW,204,4.0,4.0,37,0.00,CLR,,0.00,WeatherDisplay:10.37,2013-01-20 18:31:00,
2013-01-20 13:36:00,63.6,36.8,29.98,West,276,3.5,3.5,37,0.00,CLR,,0.00,WeatherDisplay:10.37,2013-01-20 18:36:00,
2013-01-20 13:41:00,64.1,36.6,29.99,WNW,298,5.0,5.0,36,0.00,CLR,,0.00,WeatherDisplay:10.37,2013-01-20 18:41:00,
2013-01-20 13:46:00,64.3,36.8,29.99,NNW,338,3.5,3.5,36,0.00,CLR,,0.00,WeatherDisplay:10.37,2013-01-20 18:46:00,
2013-01-20 13:51:00,64.2,36.7,29.98,SSW,208,3.5,3.5,36,0.00,CLR,,0.00,WeatherDisplay:10.37,2013-01-20 18:51:00,
2013-01-20 13:56:00,64.4,37.5,29.98,West,271,2.3,2.3,37,0.00,CLR,,0.00,WeatherDisplay:10.37,2013-01-20 18:56:00,
2013-01-20 14:01:00,64.8,37.9,29.98,ENE,65,5.0,5.0,37,0.00,CLR,,0.00,WeatherDisplay:10.37,2013-01-20 19:01:00,
2013-01-20 14:06:00,65.1,36.0,29.98,WNW,300,3.5,3.5,34,0.00,CLR,,0.00,WeatherDisplay:10.37,2013-01-20 19:06:00,
2013-01-20 14:11:00,65.3,36.9,29.98,WNW,285,3.0,3.0,35,0.00,CLR,,0.00,WeatherDisplay:10.37,2013-01-20 19:11:00,
2013-01-20 14:16:00,65.7,36.5,29.98,SW,223,3.5,3.5,34,0.00,CLR,,0.00,WeatherDisplay:10.37,2013-01-20 19:16:00,
2013-01-20 14:21:00,66.1,36.9,29.98,West,268,3.5,3.5,34,0.00,CLR,,0.00,WeatherDisplay:10.37,2013-01-20 19:21:00,
2013-01-20 14:26:00,66.3,37.1,29.98,SSW,194,3.5,3.5,34,0.00,CLR,,0.00,WeatherDisplay:10.37,2013-01-20 19:26:00,
2013-01-20 14:31:00,66.0,35.3,29.97,WNW,303,5.8,5.8,32,0.00,CLR,,0.00,WeatherDisplay:10.37,2013-01-20 19:31:00,
2013-01-20 14:36:00,65.8,36.6,29.97,WSW,239,5.8,5.8,34,0.00,CLR,,0.00,WeatherDisplay:10.37,2013-01-20 19:36:00,
2013-01-20 14:41:00,65.8,36.6,29.97,West,269,3.5,3.5,34,0.00,CLR,,0.00,WeatherDisplay:10.37,2013-01-20 19:41:00,
2013-01-20 14:46:00,65.8,35.9,29.97,WNW,300,4.6,4.6,33,0.00,CLR,,0.00,WeatherDisplay:10.37,2013-01-20 19:46:00,
2013-01-20 14:51:00,65.7,35.8,29.97,SW,228,3.5,3.5,33,0.00,CLR,,0.00,WeatherDisplay:10.37,2013-01-20 19:51:00,
2013-01-20 14:56:00,65.8,35.1,29.97,WNW,296,4.6,4.6,32,0.00,CLR,,0.00,WeatherDisplay:10.37,2013-01-20 19:56:00,
2013-01-20 15:01:00,66.2,36.2,29.97,WSW,258,2.3,2.3,33,0.00,CLR,,0.00,WeatherDisplay:10.37,2013-01-20 20:01:00,
2013-01-20 15:06:00,66.7,35.9,29.97,West,262,2.3,2.3,32,0.00,CLR,,0.00,WeatherDisplay:10.37,2013-01-20 20:06:00,
2013-01-20 15:11:00,66.6,34.2,29.97,NW,311,11.5,11.5,30,0.00,CLR,,0.00,WeatherDisplay:10.37,2013-01-20 20:11:00,
2013-01-20 15:16:00,66.0,33.7,29.97,NNW,347,3.5,3.5,30,0.00,CLR,,0.00,WeatherDisplay:10.37,2013-01-20 20:16:00,
2013-01-20 15:21:00,66.0,33.7,29.97,WNW,293,5.8,5.8,30,0.00,CLR,,0.00,WeatherDisplay:10.37,2013-01-20 20:21:00,
2013-01-20 15:26:00,65.7,33.4,29.97,South,176,10.4,10.4,30,0.00,CLR,,0.00,WeatherDisplay:10.37,2013-01-20 20:26:00,
2013-01-20 15:31:00,65.6,33.3,29.97,SW,219,4.6,4.6,30,0.00,CLR,,0.00,WeatherDisplay:10.37,2013-01-20 20:31:00,
2013-01-20 15:36:00,65.6,34.1,29.97,NNE,18,3.5,3.5,31,0.00,CLR,,0.00,WeatherDisplay:10.37,2013-01-20 20:36:00,
2013-01-20 15:41:00,65.2,33.8,29.97,NW,307,4.6,4.6,31,0.00,CLR,,0.00,WeatherDisplay:10.37,2013-01-20 20:41:00,
2013-01-20 15:46:00,65.2,33.8,29.98,SW,222,3.5,3.5,31,0.00,CLR,,0.00,WeatherDisplay:10.37,2013-01-20 20:46:00,
2013-01-20 15:51:00,65.2,34.6,29.98,West,263,3.5,3.5,32,0.00,CLR,,0.00,WeatherDisplay:10.37,2013-01-20 20:51:00,
2013-01-20 15:57:00,65.2,33.8,29.98,SW,227,6.0,6.0,31,0.00,CLR,,0.00,WeatherDisplay:10.37,2013-01-20 20:57:00,
2013-01-20 16:02:00,65.3,33.9,29.98,West,276,4.6,4.6,31,0.00,CLR,,0.00,WeatherDisplay:10.37,2013-01-20 21:02:00,
2013-01-20 16:07:00,65.1,34.5,29.98,WNW,302,2.3,2.3,32,0.00,CLR,,0.00,WeatherDisplay:10.37,2013-01-20 21:07:00,
2013-01-20 16:12:00,65.1,34.5,29.98,NNW,342,3.5,3.5,32,0.00,CLR,,0.00,WeatherDisplay:10.37,2013-01-20 21:12:00,
2013-01-20 16:17:00,64.7,34.1,29.98,West,269,3.5,3.5,32,0.00,CLR,,0.00,WeatherDisplay:10.37,2013-01-20 21:17:00,
2013-01-20 16:22:00,64.4,34.6,29.98,WNW,295,1.1,1.1,33,0.00,CLR,,0.00,WeatherDisplay:10.37,2013-01-20 21:22:00,
2013-01-20 16:27:00,63.8,34.1,29.98,WNW,291,3.5,3.5,33,0.00,CLR,,0.00,WeatherDisplay:10.37,2013-01-20 21:27:00,
2013-01-20 16:32:00,63.3,34.4,29.98,West,277,3.5,3.5,34,0.00,CLR,,0.00,WeatherDisplay:10.37,2013-01-20 21:32:00,
2013-01-20 16:37:00,62.9,34.8,29.98,NW,309,1.1,0.0,35,0.00,CLR,,0.00,WeatherDisplay:10.37,2013-01-20 21:37:00,
2013-01-20 16:42:00,62.8,34.7,29.98,NW,311,3.5,3.5,35,0.00,CLR,,0.00,WeatherDisplay:10.37,2013-01-20 21:42:00,
2013-01-20 16:47:00,62.6,35.3,29.98,WSW,258,1.1,1.1,36,0.00,CLR,,0.00,WeatherDisplay:10.37,2013-01-20 21:47:00,
2013-01-20 16:52:00,62.3,35.0,29.98,NNW,328,1.1,0.0,36,0.00,CLR,,0.00,WeatherDisplay:10.37,2013-01-20 21:52:00,
2013-01-20 16:57:00,61.7,35.1,29.98,WSW,251,0.0,0.0,37,0.00,CLR,,0.00,WeatherDisplay:10.37,2013-01-20 21:57:00,
2013-01-20 17:02:00,61.1,34.6,29.98,WNW,292,1.1,1.1,37,0.00,CLR,,0.00,WeatherDisplay:10.37,2013-01-20 22:02:00,
2013-01-20 17:08:00,60.6,34.8,29.98,WSW,257,1.1,1.1,38,0.00,CLR,,0.00,WeatherDisplay:10.37,2013-01-20 22:08:00,
2013-01-20 17:13:00,60.1,35.0,29.99,WSW,256,0.0,0.0,39,0.00,CLR,,0.00,WeatherDisplay:10.37,2013-01-20 22:13:00,
2013-01-20 17:18:00,59.6,35.2,29.99,West,259,1.1,1.1,40,0.00,CLR,,0.00,WeatherDisplay:10.37,2013-01-20 22:18:00,
2013-01-20 17:23:00,59.4,35.1,29.99,WNW,289,1.1,1.1,40,0.00,CLR,,0.00,WeatherDisplay:10.37,2013-01-20 22:23:00,
2013-01-20 17:28:00,59.0,34.7,29.99,WNW,289,1.1,1.1,40,0.00,CLR,,0.00,WeatherDisplay:10.37,2013-01-20 22:28:00,
2013-01-20 17:33:00,58.8,33.9,30.00,WSW,257,1.1,1.1,39,0.00,CLR,,0.00,WeatherDisplay:10.37,2013-01-20 22:33:00,
2013-01-20 17:38:00,58.6,34.3,30.00,WSW,238,2.3,2.3,40,0.00,CLR,,0.00,WeatherDisplay:10.37,2013-01-20 22:38:00,
2013-01-20 17:43:00,58.3,34.1,30.00,WSW,242,1.1,0.0,40,0.00,CLR,,0.00,WeatherDisplay:10.37,2013-01-20 22:43:00,
2013-01-20 17:48:00,57.9,34.3,30.00,NW,309,1.1,1.1,41,0.00,CLR,,0.00,WeatherDisplay:10.37,2013-01-20 22:48:00,
2013-01-20 17:53:00,57.6,34.1,30.00,NW,309,0.0,0.0,41,0.00,CLR,,0.00,WeatherDisplay:10.37,2013-01-20 22:53:00,
2013-01-20 17:58:00,57.2,34.3,30.01,NW,309,0.0,0.0,42,0.00,CLR,,0.00,WeatherDisplay:10.37,2013-01-20 22:58:00,
2013-01-20 18:03:00,56.6,34.3,30.01,NW,309,0.0,0.0,43,0.00,CLR,,0.00,WeatherDisplay:10.37,2013-01-20 23:03:00,
2013-01-20 18:08:00,56.0,34.4,30.01,NW,309,0.0,0.0,44,0.00,CLR,,0.00,WeatherDisplay:10.37,2013-01-20 23:08:00,
2013-01-20 18:13:00,55.3,34.3,30.01,NW,309,0.0,0.0,45,0.00,CLR,,0.00,WeatherDisplay:10.37,2013-01-20 23:13:00,
2013-01-20 18:18:00,54.6,34.8,30.02,NW,309,0.0,0.0,47,0.00,CLR,,0.00,WeatherDisplay:10.37,2013-01-20 23:18:00,
2013-01-20 18:23:00,53.8,35.6,30.02,NW,309,0.0,0.0,50,0.00,CLR,,0.00,WeatherDisplay:10.37,2013-01-20 23:23:00,
2013-01-20 18:28:00,52.9,35.2,30.02,NW,309,0.0,0.0,51,0.00,CLR,,0.00,WeatherDisplay:10.37,2013-01-20 23:28:00,
2013-01-20 18:33:00,52.0,35.4,30.03,NW,309,0.0,0.0,53,0.00,CLR,,0.00,WeatherDisplay:10.37,2013-01-20 23:33:00,
2013-01-20 18:38:00,51.1,35.5,30.03,NW,309,0.0,0.0,55,0.00,CLR,,0.00,WeatherDisplay:10.37,2013-01-20 23:38:00,
2013-01-20 18:43:00,50.4,35.7,30.03,NW,309,0.0,0.0,57,0.00,CLR,,0.00,WeatherDisplay:10.37,2013-01-20 23:43:00,
2013-01-20 18:48:00,49.7,35.5,30.03,NW,309,0.0,0.0,58,0.00,CLR,,0.00,WeatherDisplay:10.37,2013-01-20 23:48:00,
2013-01-20 18:53:00,48.9,35.6,30.03,NW,309,0.0,0.0,60,0.00,CLR,,0.00,WeatherDisplay:10.37,2013-01-20 23:53:00,
2013-01-20 18:58:00,48.3,35.5,30.03,NW,309,0.0,0.0,61,0.00,CLR,,0.00,WeatherDisplay:10.37,2013-01-20 23:58:00,
2013-01-20 19:03:00,47.7,36.1,30.03,NW,309,0.0,0.0,64,0.00,CLR,,0.00,WeatherDisplay:10.37,2013-01-21 00:03:00,
2013-01-20 19:08:00,47.4,36.2,30.04,NW,309,0.0,0.0,65,0.00,CLR,,0.00,WeatherDisplay:10.37,2013-01-21 00:08:00,
2013-01-20 19:13:00,47.1,35.5,30.04,NW,309,0.0,0.0,64,0.00,CLR,,0.00,WeatherDisplay:10.37,2013-01-21 00:13:00,
2013-01-20 19:18:00,46.7,35.6,30.04,NW,309,0.0,0.0,65,0.00,CLR,,0.00,WeatherDisplay:10.37,2013-01-21 00:18:00,
2013-01-20 19:23:00,46.2,35.5,30.04,NW,309,0.0,0.0,66,0.00,CLR,,0.00,WeatherDisplay:10.37,2013-01-21 00:23:00,
2013-01-20 19:28:00,45.8,35.8,30.04,NW,309,0.0,0.0,68,0.00,CLR,,0.00,WeatherDisplay:10.37,2013-01-21 00:28:00,
2013-01-20 19:33:00,45.7,35.7,30.04,NW,309,0.0,0.0,68,0.00,CLR,,0.00,WeatherDisplay:10.37,2013-01-21 00:33:00,
2013-01-20 19:38:00,45.7,35.7,30.04,NW,309,0.0,0.0,68,0.00,CLR,,0.00,WeatherDisplay:10.37,2013-01-21 00:38:00,
2013-01-20 19:43:00,45.5,35.9,30.04,NW,309,0.0,0.0,69,0.00,CLR,,0.00,WeatherDisplay:10.37,2013-01-21 00:43:00,
2013-01-20 19:48:00,45.0,35.4,30.05,NW,309,0.0,0.0,69,0.00,CLR,,0.00,WeatherDisplay:10.37,2013-01-21 00:48:00,
2013-01-20 19:53:00,44.5,35.7,30.05,NW,309,0.0,0.0,71,0.00,CLR,,0.00,WeatherDisplay:10.37,2013-01-21 00:53:00,
2013-01-20 19:58:00,44.3,35.8,30.05,WSW,251,1.1,1.1,72,0.00,CLR,,0.00,WeatherDisplay:10.37,2013-01-21 00:58:00,
2013-01-20 20:03:00,44.3,35.8,30.05,WSW,249,0.0,0.0,72,0.00,CLR,,0.00,WeatherDisplay:10.37,2013-01-21 01:03:00,
2013-01-20 20:08:00,44.1,35.6,30.06,WSW,251,0.0,0.0,72,0.00,CLR,,0.00,WeatherDisplay:10.37,2013-01-21 01:08:00,
2013-01-20 20:13:00,43.8,35.0,30.06,WSW,249,0.0,0.0,71,0.00,CLR,,0.00,WeatherDisplay:10.37,2013-01-21 01:13:00,
2013-01-20 20:18:00,44.0,35.2,30.06,WSW,249,0.0,0.0,71,0.00,CLR,,0.00,WeatherDisplay:10.37,2013-01-21 01:18:00,
2013-01-20 20:23:00,44.3,34.8,30.06,WSW,249,0.0,0.0,69,0.00,CLR,,0.00,WeatherDisplay:10.37,2013-01-21 01:23:00,
2013-01-20 20:28:00,44.3,34.4,30.06,WSW,249,0.0,0.0,68,0.00,CLR,,0.00,WeatherDisplay:10.37,2013-01-21 01:28:00,
2013-01-20 20:33:00,44.6,33.9,30.06,WNW,294,0.0,0.0,66,0.00,CLR,,0.00,WeatherDisplay:10.37,2013-01-21 01:33:00,
2013-01-20 20:38:00,45.8,33.5,30.06,WSW,252,0.0,0.0,62,0.00,CLR,,0.00,WeatherDisplay:10.37,2013-01-21 01:38:00,
2013-01-20 20:44:00,46.5,32.5,30.06,WNW,289,0.0,0.0,58,0.00,CLR,,0.00,WeatherDisplay:10.37,2013-01-21 01:44:00,
2013-01-20 20:49:00,47.6,32.2,30.07,West,264,0.0,0.0,55,0.00,CLR,,0.00,WeatherDisplay:10.37,2013-01-21 01:49:00,
2013-01-20 20:54:00,48.3,31.9,30.07,North,351,1.1,1.1,53,0.00,CLR,,0.00,WeatherDisplay:10.37,2013-01-21 01:54:00,
2013-01-20 20:59:00,48.6,31.8,30.07,West,273,0.0,0.0,52,0.00,CLR,,0.00,WeatherDisplay:10.37,2013-01-21 01:59:00,
2013-01-20 21:04:00,48.6,31.8,30.07,West,269,0.0,0.0,52,0.00,CLR,,0.00,WeatherDisplay:10.37,2013-01-21 02:04:00,
2013-01-20 21:09:00,48.5,31.7,30.07,West,271,0.0,0.0,52,0.00,CLR,,0.00,WeatherDisplay:10.37,2013-01-21 02:09:00,
2013-01-20 21:14:00,48.2,31.4,30.07,West,271,0.0,0.0,52,0.00,CLR,,0.00,WeatherDisplay:10.37,2013-01-21 02:14:00,
2013-01-20 21:19:00,47.9,31.6,30.07,West,271,0.0,0.0,53,0.00,CLR,,0.00,WeatherDisplay:10.37,2013-01-21 02:19:00,
2013-01-20 21:24:00,47.5,31.2,30.07,West,271,0.0,0.0,53,0.00,CLR,,0.00,WeatherDisplay:10.37,2013-01-21 02:24:00,
2013-01-20 21:29:00,47.2,31.4,30.08,West,271,0.0,0.0,54,0.00,CLR,,0.00,WeatherDisplay:10.37,2013-01-21 02:29:00,
2013-01-20 21:34:00,46.7,31.4,30.08,West,271,0.0,0.0,55,0.00,CLR,,0.00,WeatherDisplay:10.37,2013-01-21 02:34:00,
2013-01-20 21:39:00,46.1,31.3,30.08,West,271,0.0,0.0,56,0.00,CLR,,0.00,WeatherDisplay:10.37,2013-01-21 02:39:00,
2013-01-20 21:44:00,45.6,31.7,30.08,West,271,0.0,0.0,58,0.00,CLR,,0.00,WeatherDisplay:10.37,2013-01-21 02:44:00,
2013-01-20 21:49:00,45.3,31.4,30.08,West,273,0.0,0.0,58,0.00,CLR,,0.00,WeatherDisplay:10.37,2013-01-21 02:49:00,
2013-01-20 21:54:00,44.9,31.8,30.08,West,273,0.0,0.0,60,0.00,CLR,,0.00,WeatherDisplay:10.37,2013-01-21 02:54:00,
2013-01-20 21:59:00,44.3,31.3,30.08,West,273,0.0,0.0,60,0.00,CLR,,0.00,WeatherDisplay:10.37,2013-01-21 02:59:00,
2013-01-20 22:04:00,43.6,31.4,30.08,West,273,0.0,0.0,62,0.00,CLR,,0.00,WeatherDisplay:10.37,2013-01-21 03:04:00,
2013-01-20 22:09:00,42.9,31.9,30.08,West,273,0.0,0.0,65,0.00,CLR,,0.00,WeatherDisplay:10.37,2013-01-21 03:09:00,
2013-01-20 22:14:00,42.4,33.7,30.08,WSW,248,0.0,0.0,71,0.00,CLR,,0.00,WeatherDisplay:10.37,2013-01-21 03:14:00,
2013-01-20 22:19:00,42.0,33.6,30.08,WSW,248,0.0,0.0,72,0.00,CLR,,0.00,WeatherDisplay:10.37,2013-01-21 03:19:00,
2013-01-20 22:24:00,41.5,33.5,30.08,WSW,248,0.0,0.0,73,0.00,CLR,,0.00,WeatherDisplay:10.37,2013-01-21 03:24:00,
2013-01-20 22:29:00,41.0,33.3,30.08,WSW,248,0.0,0.0,74,0.00,CLR,,0.00,WeatherDisplay:10.37,2013-01-21 03:29:00,
2013-01-20 22:34:00,40.6,33.3,30.08,WSW,248,0.0,0.0,75,0.00,CLR,,0.00,WeatherDisplay:10.37,2013-01-21 03:34:00,
2013-01-20 22:39:00,40.2,33.2,30.08,WSW,248,0.0,0.0,76,0.00,CLR,,0.00,WeatherDisplay:10.37,2013-01-21 03:39:00,
2013-01-20 22:44:00,39.7,33.1,30.08,WSW,248,0.0,0.0,77,0.00,CLR,,0.00,WeatherDisplay:10.37,2013-01-21 03:44:00,
2013-01-20 22:49:00,39.2,32.9,30.09,WSW,248,0.0,0.0,78,0.00,CLR,,0.00,WeatherDisplay:10.37,2013-01-21 03:49:00,
2013-01-20 22:54:00,38.8,32.8,30.08,WSW,247,0.0,0.0,79,0.00,CLR,,0.00,WeatherDisplay:10.37,2013-01-21 03:54:00,
2013-01-20 22:59:00,38.6,32.6,30.08,WSW,247,0.0,0.0,79,0.00,CLR,,0.00,WeatherDisplay:10.37,2013-01-21 03:59:00,
2013-01-20 23:04:00,38.3,32.4,30.09,WSW,247,0.0,0.0,79,0.00,CLR,,0.00,WeatherDisplay:10.37,2013-01-21 04:04:00,
2013-01-20 23:09:00,38.0,32.1,30.09,WSW,247,0.0,0.0,79,0.00,CLR,,0.00,WeatherDisplay:10.37,2013-01-21 04:09:00,
2013-01-20 23:14:00,37.6,32.0,30.08,WSW,248,0.0,0.0,80,0.00,CLR,,0.00,WeatherDisplay:10.37,2013-01-21 04:14:00,
2013-01-20 23:19:00,37.5,31.9,30.08,WSW,248,0.0,0.0,80,0.00,CLR,,0.00,WeatherDisplay:10.37,2013-01-21 04:19:00,
2013-01-20 23:24:00,37.1,31.5,30.08,WSW,247,0.0,0.0,80,0.00,CLR,,0.00,WeatherDisplay:10.37,2013-01-21 04:24:00,
2013-01-20 23:29:00,36.7,31.4,30.08,WSW,248,0.0,0.0,81,0.00,CLR,,0.00,WeatherDisplay:10.37,2013-01-21 04:29:00,
2013-01-20 23:34:00,36.4,31.4,30.08,WSW,248,0.0,0.0,82,0.00,CLR,,0.00,WeatherDisplay:10.37,2013-01-21 04:34:00,
2013-01-20 23:39:00,36.4,32.0,30.09,WSW,250,0.0,0.0,84,0.00,CLR,,0.00,WeatherDisplay:10.37,2013-01-21 04:39:00,
2013-01-20 23:44:00,36.3,31.6,30.09,WSW,251,0.0,0.0,83,0.00,CLR,,0.00,WeatherDisplay:10.37,2013-01-21 04:44:00,
2013-01-20 23:49:00,35.9,31.2,30.09,WSW,250,0.0,0.0,83,0.00,CLR,,0.00,WeatherDisplay:10.37,2013-01-21 04:49:00,
2013-01-20 23:54:00,35.8,31.4,30.08,WSW,250,0.0,0.0,84,0.00,CLR,,0.00,WeatherDisplay:10.37,2013-01-21 04:54:00,
2013-01-20 23:59:00,35.8,31.4,30.08,WSW,250,0.0,0.0,84,0.00,CLR,,0.00,WeatherDisplay:10.37,2013-01-21 04:59:00,